This is the latest recevied weather packets stored in our database for station/object KG0HG. If no packets are shown the sender has not sent any weather packets the latest 10 day(s).
| Time | Temp. | Humidity | Pressure | Rain* | Wind** | Luminosity | Snow |
|---|---|---|---|---|---|---|---|
| 1777673095 | 17.78° C | 31% | 1016.2 hPa | 0 mm | - | 55 W/m² | - |
| 1777672791 | 18.33° C | 32% | 1016.4 hPa | 0 mm | - | 85 W/m² | - |
| 1777672488 | 18.33° C | 30% | 1016.3 hPa | 0 mm | - | 94 W/m² | - |
| 1777672183 | 17.78° C | 31% | 1016.3 hPa | 0 mm | - | 199 W/m² | - |
| 1777671879 | 18.33° C | 30% | 1016.5 hPa | 0 mm | - | 162 W/m² | - |
| 1777671575 | 18.33° C | 33% | 1016.6 hPa | 0 mm | - | 94 W/m² | - |
| 1777671272 | 17.78° C | 31% | 1016.4 hPa | 0 mm | - | 149 W/m² | - |
| 1777670967 | 17.78° C | 33% | 1016.7 hPa | 0 mm | - | 150 W/m² | - |
| 1777670665 | 17.78° C | 35% | 1016.9 hPa | 0 mm | - | 95 W/m² | - |
| 1777670361 | 17.22° C | 37% | 1016.9 hPa | 0 mm | - | 80 W/m² | - |
| 1777670059 | 16.67° C | 38% | 1016.9 hPa | 0 mm | - | 140 W/m² | - |
| 1777669756 | 16.67° C | 37% | 1016.9 hPa | 0 mm | - | 103 W/m² | - |
| 1777669452 | 16.67° C | 36% | 1017.3 hPa | 0 mm | - | 51 W/m² | - |
| 1777669149 | 17.22° C | 36% | 1017.2 hPa | 0 mm | - | 56 W/m² | - |
| 1777668846 | 17.22° C | 35% | 1017.3 hPa | 0 mm | - | 50 W/m² | - |
| 1777668543 | 17.78° C | 35% | 1017.1 hPa | 0 mm | - | 69 W/m² | - |
| 1777668239 | 17.78° C | 34% | 1017.6 hPa | 0 mm | - | 141 W/m² | - |
| 1777667935 | 16.67° C | 36% | 1017.4 hPa | 0 mm | - | 171 W/m² | - |
| 1777667633 | 17.22° C | 36% | 1017.6 hPa | 0 mm | - | 66 W/m² | - |
| 1777667330 | 17.22° C | 35% | 1017.4 hPa | 0 mm | - | 58 W/m² | - |
| 1777667027 | 17.22° C | 36% | 1017.6 hPa | 0 mm | - | 68 W/m² | - |
| 1777666723 | 17.78° C | 33% | 1017.6 hPa | 0 mm | - | 64 W/m² | - |
| 1777666420 | 17.22° C | 35% | 1017.6 hPa | 0 mm | - | 213 W/m² | - |
| 1777666117 | 17.22° C | 35% | 1017.7 hPa | 0 mm | - | 163 W/m² | - |
| 1777665814 | 16.11° C | 36% | 1017.9 hPa | 0 mm | - | 453 W/m² | - |
* Rain latest hour (hover to see other rain measurements)
** Current wind speed in m/s (hover to see current wind gust speed)